DLH2129 EDDC-EDDM
Flight info
| Callsign | DLH2129 |
|---|---|
| Flight time | 0h 35m |
| Altitude | 28000 |
| Route | MAREM5W MAREM DCT VESUB T106 TUSTO T108 LANDU LANDU2B |
| Aircraft | A321/M-SDE3FGHIRWY/LB1 |
Departure
| Time | 2026-05-04 08:20 |
|---|---|
| Airport | Dresden Airport (EDDC) |
Arrival
| Time | 2026-05-04 08:55 |
|---|---|
| Airport | Munich Airport (EDDM) |
| Time | Latitude | Longitude | Altitude | Speed | Heading |
|---|---|---|---|---|---|
| 2026-05-04 08:02 | 51.12628 | 13.76542 | 753 ft | 0 kts | 221° |
| 2026-05-04 08:08 | 51.12649 | 13.76572 | 749 ft | 4 kts | 224° |
| 2026-05-04 08:08 | 51.12667 | 13.76603 | 748 ft | 4 kts | 232° |
| 2026-05-04 08:10 | 51.12679 | 13.76663 | 750 ft | 0 kts | 311° |
| 2026-05-04 08:11 | 51.12690 | 13.76642 | 752 ft | 3 kts | 311° |
| 2026-05-04 08:11 | 51.12709 | 13.76608 | 750 ft | 5 kts | 311° |
| 2026-05-04 08:12 | 51.12737 | 13.76559 | 749 ft | 6 kts | 321° |
| 2026-05-04 08:12 | 51.12767 | 13.76565 | 749 ft | 8 kts | 28° |
| 2026-05-04 08:12 | 51.12815 | 13.76623 | 748 ft | 9 kts | 38° |
| 2026-05-04 08:12 | 51.12868 | 13.76695 | 751 ft | 11 kts | 41° |
| 2026-05-04 08:13 | 51.12931 | 13.76784 | 750 ft | 13 kts | 41° |
| 2026-05-04 08:13 | 51.13006 | 13.76884 | 750 ft | 15 kts | 41° |
| 2026-05-04 08:13 | 51.13089 | 13.76999 | 747 ft | 17 kts | 42° |
| 2026-05-04 08:13 | 51.13167 | 13.77088 | 749 ft | 11 kts | 7° |
| 2026-05-04 08:14 | 51.13236 | 13.77022 | 744 ft | 13 kts | 4° |
| 2026-05-04 08:14 | 51.13316 | 13.77114 | 741 ft | 17 kts | 40° |
| 2026-05-04 08:14 | 51.13423 | 13.77260 | 733 ft | 23 kts | 41° |
| 2026-05-04 08:16 | 51.14171 | 13.78292 | 712 ft | 0 kts | 41° |
| 2026-05-04 08:17 | 51.14175 | 13.78298 | 712 ft | 3 kts | 41° |
| 2026-05-04 08:17 | 51.14200 | 13.78333 | 702 ft | 7 kts | 41° |
| 2026-05-04 08:19 | 51.14044 | 13.77640 | 720 ft | 96 kts | 221° |
| 2026-05-04 08:19 | 51.13355 | 13.76684 | 748 ft | 159 kts | 222° |
| 2026-05-04 08:20 | 51.12535 | 13.75508 | 1449 ft | 158 kts | 224° |
| 2026-05-04 08:20 | 51.11744 | 13.74310 | 2304 ft | 154 kts | 223° |
| 2026-05-04 08:20 | 51.10983 | 13.73206 | 3151 ft | 141 kts | 224° |
| 2026-05-04 08:20 | 51.10292 | 13.72219 | 3961 ft | 128 kts | 224° |
| 2026-05-04 08:21 | 51.09614 | 13.71253 | 4519 ft | 133 kts | 223° |
| 2026-05-04 08:21 | 51.08853 | 13.70170 | 4803 ft | 163 kts | 222° |
| 2026-05-04 08:21 | 51.07921 | 13.68851 | 5016 ft | 195 kts | 222° |
| 2026-05-04 08:21 | 51.06833 | 13.67316 | 5239 ft | 223 kts | 222° |
| 2026-05-04 08:22 | 51.05595 | 13.65574 | 5406 ft | 250 kts | 222° |
| 2026-05-04 08:22 | 51.04257 | 13.63691 | 5635 ft | 261 kts | 222° |
| 2026-05-04 08:24 | 50.91448 | 13.60915 | 10640 ft | 312 kts | 179° |
| 2026-05-04 08:24 | 50.89196 | 13.61126 | 10797 ft | 335 kts | 179° |
| 2026-05-04 08:24 | 50.86824 | 13.61352 | 10973 ft | 354 kts | 179° |
| 2026-05-04 08:24 | 50.84334 | 13.61597 | 11508 ft | 361 kts | 179° |
| 2026-05-04 08:25 | 50.81813 | 13.61853 | 12178 ft | 364 kts | 179° |
| 2026-05-04 08:25 | 50.79270 | 13.62115 | 12840 ft | 368 kts | 178° |
| 2026-05-04 08:25 | 50.76704 | 13.62376 | 13502 ft | 370 kts | 178° |
| 2026-05-04 08:25 | 50.74122 | 13.62633 | 14116 ft | 374 kts | 179° |
| 2026-05-04 08:26 | 50.71517 | 13.62504 | 14686 ft | 375 kts | 189° |
| 2026-05-04 08:27 | 50.53639 | 13.53947 | 18495 ft | 395 kts | 199° |
| 2026-05-04 08:28 | 50.51006 | 13.52644 | 18915 ft | 398 kts | 199° |
| 2026-05-04 08:28 | 50.48352 | 13.51330 | 19356 ft | 401 kts | 199° |
| 2026-05-04 08:28 | 50.45681 | 13.50002 | 19817 ft | 404 kts | 199° |
| 2026-05-04 08:28 | 50.42991 | 13.48666 | 20298 ft | 407 kts | 199° |
| 2026-05-04 08:29 | 50.40318 | 13.47342 | 20743 ft | 409 kts | 199° |
| 2026-05-04 08:29 | 50.37593 | 13.45994 | 21200 ft | 412 kts | 199° |
| 2026-05-04 08:29 | 50.34846 | 13.44637 | 21656 ft | 415 kts | 199° |
| 2026-05-04 08:31 | 50.15129 | 13.34958 | 24473 ft | 433 kts | 199° |
| 2026-05-04 08:33 | 49.94578 | 13.24960 | 26804 ft | 450 kts | 199° |
| 2026-05-04 08:33 | 49.91583 | 13.23514 | 27098 ft | 452 kts | 199° |
| 2026-05-04 08:35 | 49.70711 | 13.13463 | 28054 ft | 441 kts | 199° |
| 2026-05-04 08:35 | 49.67783 | 13.12064 | 28032 ft | 440 kts | 199° |
| 2026-05-04 08:35 | 49.61933 | 13.09260 | 28032 ft | 440 kts | 199° |
| 2026-05-04 08:37 | 49.41482 | 12.99399 | 27973 ft | 439 kts | 205° |
| 2026-05-04 08:37 | 49.38708 | 12.97420 | 27699 ft | 439 kts | 207° |
| 2026-05-04 08:38 | 49.35958 | 12.95396 | 27433 ft | 439 kts | 207° |
| 2026-05-04 08:38 | 49.33197 | 12.93372 | 27174 ft | 440 kts | 207° |
| 2026-05-04 08:38 | 49.30429 | 12.91353 | 26917 ft | 441 kts | 207° |
| 2026-05-04 08:40 | 49.11128 | 12.77372 | 22487 ft | 434 kts | 206° |
| 2026-05-04 08:40 | 49.08418 | 12.75417 | 21671 ft | 428 kts | 206° |
| 2026-05-04 08:40 | 49.05737 | 12.73483 | 20860 ft | 423 kts | 206° |
| 2026-05-04 08:41 | 49.03094 | 12.71577 | 20053 ft | 418 kts | 206° |
| 2026-05-04 08:41 | 49.00481 | 12.69698 | 19273 ft | 413 kts | 206° |
| 2026-05-04 08:41 | 48.97898 | 12.67844 | 18519 ft | 408 kts | 206° |
| 2026-05-04 08:41 | 48.95339 | 12.66014 | 17655 ft | 403 kts | 206° |
| 2026-05-04 08:42 | 48.92855 | 12.64239 | 16922 ft | 396 kts | 206° |
| 2026-05-04 08:42 | 48.90345 | 12.62441 | 16178 ft | 391 kts | 206° |
| 2026-05-04 08:42 | 48.87904 | 12.60694 | 15455 ft | 386 kts | 206° |
| 2026-05-04 08:42 | 48.85520 | 12.58996 | 14777 ft | 381 kts | 206° |
| 2026-05-04 08:43 | 48.83135 | 12.57303 | 14089 ft | 376 kts | 206° |
| 2026-05-04 08:43 | 48.80767 | 12.55628 | 13420 ft | 373 kts | 206° |
| 2026-05-04 08:43 | 48.78424 | 12.53968 | 12799 ft | 370 kts | 206° |
| 2026-05-04 08:43 | 48.76082 | 12.52379 | 12186 ft | 368 kts | 201° |
| 2026-05-04 08:44 | 48.73712 | 12.51094 | 11830 ft | 351 kts | 200° |
| 2026-05-04 08:44 | 48.71492 | 12.49902 | 11667 ft | 327 kts | 200° |
| 2026-05-04 08:46 | 48.57207 | 12.41989 | 8894 ft | 306 kts | 201° |
| 2026-05-04 08:46 | 48.55221 | 12.40854 | 8380 ft | 304 kts | 200° |
| 2026-05-04 08:46 | 48.53243 | 12.39729 | 7883 ft | 303 kts | 201° |
| 2026-05-04 08:46 | 48.51274 | 12.38609 | 7354 ft | 301 kts | 200° |
| 2026-05-04 08:47 | 48.49333 | 12.37505 | 6825 ft | 295 kts | 201° |
| 2026-05-04 08:47 | 48.47454 | 12.36438 | 6497 ft | 282 kts | 201° |
| 2026-05-04 08:47 | 48.45807 | 12.35000 | 6156 ft | 270 kts | 224° |
| 2026-05-04 08:47 | 48.44624 | 12.32831 | 5694 ft | 267 kts | 233° |
| 2026-05-04 08:48 | 48.43562 | 12.30559 | 5248 ft | 265 kts | 234° |
| 2026-05-04 08:48 | 48.42536 | 12.28315 | 5004 ft | 260 kts | 234° |
| 2026-05-04 08:48 | 48.41540 | 12.26121 | 4992 ft | 249 kts | 234° |
| 2026-05-04 08:48 | 48.40568 | 12.23967 | 4994 ft | 249 kts | 235° |
| 2026-05-04 08:49 | 48.39595 | 12.21813 | 5017 ft | 248 kts | 234° |
| 2026-05-04 08:50 | 48.36598 | 12.08713 | 5013 ft | 205 kts | 263° |
| 2026-05-04 08:50 | 48.36441 | 12.06586 | 4850 ft | 204 kts | 263° |
| 2026-05-04 08:51 | 48.36285 | 12.04480 | 4607 ft | 202 kts | 264° |
| 2026-05-04 08:51 | 48.36131 | 12.02411 | 4347 ft | 195 kts | 264° |
| 2026-05-04 08:51 | 48.35983 | 12.00424 | 4103 ft | 190 kts | 264° |
| 2026-05-04 08:51 | 48.35837 | 11.98478 | 3836 ft | 184 kts | 264° |
| 2026-05-04 08:52 | 48.35699 | 11.96630 | 3584 ft | 174 kts | 265° |
| 2026-05-04 08:52 | 48.35562 | 11.94785 | 3373 ft | 177 kts | 264° |
| 2026-05-04 08:52 | 48.35425 | 11.92968 | 3159 ft | 177 kts | 264° |
| 2026-05-04 08:52 | 48.35288 | 11.91150 | 2913 ft | 171 kts | 264° |
| 2026-05-04 08:53 | 48.35155 | 11.89437 | 2700 ft | 162 kts | 264° |
| 2026-05-04 08:54 | 48.34322 | 11.78380 | 1486 ft | 116 kts | 264° |
| 2026-05-04 08:55 | 48.34249 | 11.77438 | 1481 ft | 66 kts | 263° |
| 2026-05-04 08:55 | 48.34215 | 11.76986 | 1483 ft | 31 kts | 262° |
| 2026-05-04 08:55 | 48.34188 | 11.76662 | 1481 ft | 31 kts | 263° |
| 2026-05-04 08:55 | 48.34219 | 11.76348 | 1483 ft | 31 kts | 293° |
| 2026-05-04 08:57 | 48.34510 | 11.75908 | 1479 ft | 0 kts | 83° |
| 2026-05-04 09:01 | 48.34655 | 11.77807 | 1480 ft | 11 kts | 83° |
| 2026-05-04 09:01 | 48.34666 | 11.77935 | 1485 ft | 13 kts | 83° |
| 2026-05-04 09:01 | 48.34678 | 11.78086 | 1485 ft | 16 kts | 84° |
| 2026-05-04 09:01 | 48.34690 | 11.78259 | 1485 ft | 17 kts | 84° |
| 2026-05-04 09:02 | 48.34704 | 11.78447 | 1485 ft | 19 kts | 85° |
| 2026-05-04 09:02 | 48.34721 | 11.78647 | 1481 ft | 20 kts | 83° |
| 2026-05-04 09:02 | 48.34737 | 11.78859 | 1475 ft | 21 kts | 83° |
| 2026-05-04 09:02 | 48.34754 | 11.79084 | 1478 ft | 22 kts | 84° |
| 2026-05-04 09:03 | 48.34769 | 11.79270 | 1475 ft | 8 kts | 82° |
| 2026-05-04 09:03 | 48.34777 | 11.79364 | 1481 ft | 10 kts | 83° |
| 2026-05-04 09:03 | 48.34785 | 11.79478 | 1480 ft | 12 kts | 84° |
| 2026-05-04 09:03 | 48.34830 | 11.79566 | 1479 ft | 11 kts | 3° |